MSC Immacolata — 3FLQ2 — position and weather

sailwx.info

Track history (hours):
 
Tides and Currents Weather Stations Pressure Air Temp Water Temp Dewpoint Dewpoint Depression Visibility Wind Speed Wind Dir Waves Ship Positions

MSC Immacolata

Last reported at 2018-Jan-21 19:24 UTC. Time now 2018-Jan-21 20:27 UTC.
Position N 51°20' W 003°36'.

Length 199 m; draft 9.9 m.

Type: Cargo ship. MMSI: 373124000.

Date/timePositionNaut miles runAvg speedWind from/ knotsBaromVisibWave heightAir tempDewpointWater temp
2018-Jan-21 19:24N 51°20' W 003°36'1 0.7
2018-Jan-21 18:09N 51°19' W 003°34'1 5.0
2018-Jan-21 17:59N 51°19' W 003°36'3 5.0
2018-Jan-21 17:25N 51°20' W 003°40'2 4.3
2018-Jan-21 16:57N 51°20' W 003°43'2 3.6
2018-Jan-21 16:21N 51°20' W 003°47'1 3.0
2018-Jan-21 16:00N 51°21' W 003°49'1 2.3
2018-Jan-21 15:23N 51°20' W 003°51'1 1.6
2018-Jan-21 15:00N 51°21' W 003°52'1 1.0
2018-Jan-21 14:30N 51°21' W 003°53'2 4.7
2018-Jan-21 14:00N 51°23' W 003°55'0 0.7
2018-Jan-21 13:30N 51°23' W 003°54'1 1.1
2018-Jan-21 13:00N 51°23' W 003°54'1 1.7
2018-Jan-21 12:30N 51°22' W 003°52'2 2.7
2018-Jan-21 11:48N 51°23' W 003°49'1 1.7
2018-Jan-21 11:17N 51°23' W 003°49'2 4.2
2018-Jan-21 10:44N 51°25' W 003°51'3 1.1
2018-Jan-21 07:40N 51°21' W 003°50'1 5.5
2018-Jan-21 07:30N 51°21' W 003°49'3 1.7
2018-Jan-21 05:55N 51°19' W 003°50'2 4.4
2018-Jan-21 05:30N 51°20' W 003°52'2 0.2
2018-Jan-20 18:17N 51°20' W 003°49'2 3.9
2018-Jan-20 17:44N 51°20' W 003°52'1 3.7
2018-Jan-20 17:22N 51°20' W 003°55'612.3
2018-Jan-20 16:54N 51°19' W 004°04'717.3
2018-Jan-20 16:30N 51°19' W 004°15'816.6
2018-Jan-20 16:00N 51°18' W 004°28'815.5
2018-Jan-20 15:29N 51°16' W 004°40'815.1
2018-Jan-20 14:58N 51°11' W 004°50'714.3
2018-Jan-20 14:30N 51°06' W 004°56'714.1
2018-Jan-20 14:01N 51°00' W 005°02'714.1
2018-Jan-20 13:31N 50°55' W 005°09'714.0
2018-Jan-20 13:00N 50°49' W 005°16'713.7
2018-Jan-20 12:30N 50°43' W 005°22'713.6
2018-Jan-20 12:00N 50°38' W 005°29'713.4
2018-Jan-20 11:30N 50°33' W 005°35'713.2
2018-Jan-20 11:00N 50°28' W 005°43'713.1
2018-Jan-20 10:30N 50°23' W 005°49'612.2
2018-Jan-20 10:00N 50°18' W 005°53'612.3
2018-Jan-20 09:30N 50°11' W 005°54'811.9
2018-Jan-20 08:48N 50°03' W 005°53'412.0
2018-Jan-20 08:30N 49°60' W 005°53'59913.7
2018-Jan-18 12:41N 40°26' W 009°57'212.8
2018-Jan-18 12:30N 40°23' W 009°57'5812.6
2018-Jan-18 07:57N 39°26' W 009°56'612.4
2018-Jan-18 07:29N 39°20' W 009°57'612.5
2018-Jan-18 07:00N 39°14' W 009°57'612.4
2018-Jan-18 06:30N 39°08' W 009°57'612.2
2018-Jan-18 06:00N 39°02' W 009°57'612.2
2018-Jan-18 05:30N 38°56' W 009°56'612.3
2018-Jan-18 05:00N 38°49' W 009°56'612.2
2018-Jan-18 04:30N 38°43' W 009°56'612.4
2018-Jan-18 04:00N 38°37' W 009°56'612.1
2018-Jan-18 03:30N 38°31' W 009°55'612.1
2018-Jan-18 03:00N 38°25' W 009°53'612.4
2018-Jan-18 02:30N 38°19' W 009°51'612.4
2018-Jan-18 02:00N 38°13' W 009°49'612.3
2018-Jan-18 01:30N 38°07' W 009°46'712.5
2018-Jan-18 00:58N 38°01' W 009°44'1212.6
2018-Jan-17 23:59N 37°49' W 009°41'113.3
2018-Jan-17 23:56N 37°48' W 009°41'  
2018-Jan-12 11:15N 36°45' E 013°33'416.3
2018-Jan-12 11:00N 36°44' E 013°37'816.3
2018-Jan-12 10:30N 36°41' E 013°47'915.7
2018-Jan-12 09:56N 36°38' E 013°57'715.0
2018-Jan-12 09:30N 36°36' E 014°05'815.5
2018-Jan-12 09:00N 36°34' E 014°14'815.8
2018-Jan-12 08:30N 36°32' E 014°24'815.4
2018-Jan-12 08:01N 36°29' E 014°33'815.7
2018-Jan-12 07:29N 36°28' E 014°43'  
Track history (hours):
 
Tides and Currents Weather Stations Pressure Air Temp Water Temp Dewpoint Dewpoint Depression Visibility Wind Speed Wind Dir Waves Ship Positions

MSC Immacolata

Last reported at 2018-Jan-21 19:24 UTC. Time now 2018-Jan-21 20:27 UTC.
Position N 51°20' W 003°36'.

Length 199 m; draft 9.9 m.

Type: Cargo ship. MMSI: 373124000.

Date/timePositionNaut miles runAvg speedWind from/ knotsBaromVisibWave heightAir tempDewpointWater temp
2018-Jan-21 19:24N 51°20' W 003°36'1 0.7
2018-Jan-21 18:09N 51°19' W 003°34'1 5.0
2018-Jan-21 17:59N 51°19' W 003°36'3 5.0
2018-Jan-21 17:25N 51°20' W 003°40'2 4.3
2018-Jan-21 16:57N 51°20' W 003°43'2 3.6
2018-Jan-21 16:21N 51°20' W 003°47'1 3.0
2018-Jan-21 16:00N 51°21' W 003°49'1 2.3
2018-Jan-21 15:23N 51°20' W 003°51'1 1.6
2018-Jan-21 15:00N 51°21' W 003°52'1 1.0
2018-Jan-21 14:30N 51°21' W 003°53'2 4.7
2018-Jan-21 14:00N 51°23' W 003°55'0 0.7
2018-Jan-21 13:30N 51°23' W 003°54'1 1.1
2018-Jan-21 13:00N 51°23' W 003°54'1 1.7
2018-Jan-21 12:30N 51°22' W 003°52'2 2.7
2018-Jan-21 11:48N 51°23' W 003°49'1 1.7
2018-Jan-21 11:17N 51°23' W 003°49'2 4.2
2018-Jan-21 10:44N 51°25' W 003°51'3 1.1
2018-Jan-21 07:40N 51°21' W 003°50'1 5.5
2018-Jan-21 07:30N 51°21' W 003°49'3 1.7
2018-Jan-21 05:55N 51°19' W 003°50'2 4.4
2018-Jan-21 05:30N 51°20' W 003°52'2 0.2
2018-Jan-20 18:17N 51°20' W 003°49'2 3.9
2018-Jan-20 17:44N 51°20' W 003°52'1 3.7
2018-Jan-20 17:22N 51°20' W 003°55'612.3
2018-Jan-20 16:54N 51°19' W 004°04'717.3
2018-Jan-20 16:30N 51°19' W 004°15'816.6
2018-Jan-20 16:00N 51°18' W 004°28'815.5
2018-Jan-20 15:29N 51°16' W 004°40'815.1
2018-Jan-20 14:58N 51°11' W 004°50'714.3
2018-Jan-20 14:30N 51°06' W 004°56'714.1
2018-Jan-20 14:01N 51°00' W 005°02'714.1
2018-Jan-20 13:31N 50°55' W 005°09'714.0
2018-Jan-20 13:00N 50°49' W 005°16'713.7
2018-Jan-20 12:30N 50°43' W 005°22'713.6
2018-Jan-20 12:00N 50°38' W 005°29'713.4
2018-Jan-20 11:30N 50°33' W 005°35'713.2
2018-Jan-20 11:00N 50°28' W 005°43'713.1
2018-Jan-20 10:30N 50°23' W 005°49'612.2
2018-Jan-20 10:00N 50°18' W 005°53'612.3
2018-Jan-20 09:30N 50°11' W 005°54'811.9
2018-Jan-20 08:48N 50°03' W 005°53'412.0
2018-Jan-20 08:30N 49°60' W 005°53'59913.7
2018-Jan-18 12:41N 40°26' W 009°57'212.8
2018-Jan-18 12:30N 40°23' W 009°57'5812.6
2018-Jan-18 07:57N 39°26' W 009°56'612.4
2018-Jan-18 07:29N 39°20' W 009°57'612.5
2018-Jan-18 07:00N 39°14' W 009°57'612.4
2018-Jan-18 06:30N 39°08' W 009°57'612.2
2018-Jan-18 06:00N 39°02' W 009°57'612.2
2018-Jan-18 05:30N 38°56' W 009°56'612.3
2018-Jan-18 05:00N 38°49' W 009°56'612.2
2018-Jan-18 04:30N 38°43' W 009°56'612.4
2018-Jan-18 04:00N 38°37' W 009°56'612.1
2018-Jan-18 03:30N 38°31' W 009°55'612.1
2018-Jan-18 03:00N 38°25' W 009°53'612.4
2018-Jan-18 02:30N 38°19' W 009°51'612.4
2018-Jan-18 02:00N 38°13' W 009°49'612.3
2018-Jan-18 01:30N 38°07' W 009°46'712.5
2018-Jan-18 00:58N 38°01' W 009°44'1212.6
2018-Jan-17 23:59N 37°49' W 009°41'113.3
2018-Jan-17 23:56N 37°48' W 009°41'  
2018-Jan-12 11:15N 36°45' E 013°33'416.3
2018-Jan-12 11:00N 36°44' E 013°37'816.3
2018-Jan-12 10:30N 36°41' E 013°47'915.7
2018-Jan-12 09:56N 36°38' E 013°57'715.0
2018-Jan-12 09:30N 36°36' E 014°05'815.5
2018-Jan-12 09:00N 36°34' E 014°14'815.8
2018-Jan-12 08:30N 36°32' E 014°24'815.4
2018-Jan-12 08:01N 36°29' E 014°33'815.7
2018-Jan-12 07:29N 36°28' E 014°43'  

Dump ship's entire track history